Time;durP1;ratioP1;P1;durP2;ratioP2;P2;SDS_P1;SDS_P2;PMS_P1;PMS_P2;Temp;Humidity;BMP_temperature;BMP_pressure;BME280_temperature;BME280_humidity;BME280_pressure;Samples;Min_cycle;Max_cycle;Signal;HPM_P1;HPM_P2
2021/04/14 00:00:17;;;;;;;12.77;6.68;;;4.70;99.90;;;;;;5056996;28;20049;-78
2021/04/14 00:02:43;;;;;;;14.07;6.70;;;4.60;99.90;;;;;;5058572;28;20123;-79
2021/04/14 00:05:11;;;;;;;9.95;6.50;;;4.60;99.90;;;;;;5058959;28;20045;-80
2021/04/14 00:07:39;;;;;;;11.20;6.10;;;4.60;99.90;;;;;;5057526;28;20080;-78
2021/04/14 00:10:08;;;;;;;9.55;6.50;;;4.60;99.90;;;;;;5057010;28;20131;-77
2021/04/14 00:12:34;;;;;;;9.27;6.40;;;4.50;99.90;;;;;;5054848;28;20055;-75
2021/04/14 00:15:01;;;;;;;11.65;6.75;;;4.50;99.90;;;;;;5053882;28;20132;-77
2021/04/14 00:17:27;;;;;;;9.60;6.07;;;4.50;99.90;;;;;;5054432;28;20048;-76
2021/04/14 00:19:53;;;;;;;11.68;6.97;;;4.50;99.90;;;;;;5054605;28;20132;-77
2021/04/14 00:22:20;;;;;;;10.77;6.95;;;4.40;99.90;;;;;;5054470;28;20080;-76
2021/04/14 00:24:47;;;;;;;12.50;6.63;;;4.40;99.90;;;;;;5054522;28;20128;-76
2021/04/14 00:27:13;;;;;;;13.48;6.60;;;4.30;99.90;;;;;;5055178;28;20056;-77
2021/04/14 00:29:40;;;;;;;11.80;6.60;;;4.30;99.90;;;;;;5054658;28;20048;-77
2021/04/14 00:32:07;;;;;;;11.60;6.45;;;4.30;99.90;;;;;;5054437;28;20071;-76
2021/04/14 00:34:33;;;;;;;15.13;6.75;;;4.30;99.90;;;;;;5053504;28;20052;-76
2021/04/14 00:37:02;;;;;;;15.52;7.88;;;4.30;99.90;;;;;;5053218;28;20084;-77
2021/04/14 00:39:29;;;;;;;14.35;6.80;;;4.20;99.90;;;;;;5054392;28;20135;-76
2021/04/14 00:41:56;;;;;;;12.40;6.78;;;4.20;99.90;;;;;;5054808;28;20122;-77
2021/04/14 00:44:23;;;;;;;9.23;6.25;;;4.10;99.90;;;;;;5054167;28;20081;-77
2021/04/14 00:46:50;;;;;;;14.02;6.93;;;4.10;99.90;;;;;;5053808;28;20091;-77
2021/04/14 00:49:17;;;;;;;11.18;7.00;;;4.00;99.90;;;;;;5054269;28;20060;-77
2021/04/14 00:51:44;;;;;;;10.75;6.47;;;3.90;99.90;;;;;;5053807;28;20506;-76
2021/04/14 00:54:11;;;;;;;13.02;8.18;;;3.90;99.90;;;;;;5053658;28;20048;-76
2021/04/14 00:56:37;;;;;;;11.48;6.80;;;3.80;99.90;;;;;;5053499;28;20136;-76
2021/04/14 00:59:05;;;;;;;12.18;7.07;;;3.70;99.90;;;;;;5054483;28;20053;-77
2021/04/14 01:01:31;;;;;;;12.13;7.07;;;3.70;99.90;;;;;;5055785;28;20056;-78
2021/04/14 01:03:57;;;;;;;11.13;6.72;;;3.70;99.90;;;;;;5054289;28;20458;-78
2021/04/14 01:06:27;;;;;;;11.02;7.18;;;3.70;99.90;;;;;;5054879;28;20127;-78
2021/04/14 01:08:54;;;;;;;11.07;7.22;;;3.60;99.90;;;;;;5056390;28;20055;-78
2021/04/14 01:11:22;;;;;;;10.80;6.78;;;3.60;99.90;;;;;;5057227;28;20144;-79
2021/04/14 01:13:48;;;;;;;12.13;7.03;;;3.60;99.90;;;;;;5056895;28;20053;-78
2021/04/14 01:16:16;;;;;;;11.88;7.20;;;3.60;99.90;;;;;;5055446;28;20153;-77
2021/04/14 01:18:43;;;;;;;12.13;7.25;;;3.50;99.90;;;;;;5053242;28;20044;-77
2021/04/14 01:21:12;;;;;;;13.18;7.47;;;3.50;99.90;;;;;;5053199;28;20494;-78
2021/04/14 01:23:40;;;;;;;9.73;7.03;;;3.50;99.90;;;;;;5053107;28;20132;-76
2021/04/14 01:26:07;;;;;;;11.82;6.90;;;3.40;99.90;;;;;;5053259;28;20404;-75
2021/04/14 01:28:36;;;;;;;11.30;6.95;;;3.40;99.90;;;;;;5053165;28;20442;-78
2021/04/14 01:31:03;;;;;;;11.68;6.78;;;3.40;99.90;;;;;;5053132;28;20052;-77
2021/04/14 01:33:32;;;;;;;10.68;6.88;;;3.30;99.90;;;;;;5053036;28;20477;-77
2021/04/14 01:35:59;;;;;;;13.10;7.32;;;3.30;99.90;;;;;;5052679;28;20458;-77
2021/04/14 01:38:25;;;;;;;14.93;7.38;;;3.30;99.90;;;;;;5052398;28;20049;-78
2021/04/14 01:40:52;;;;;;;10.05;6.72;;;3.20;99.90;;;;;;5053640;28;20132;-76
2021/04/14 01:43:19;;;;;;;10.45;6.95;;;3.20;99.90;;;;;;5052844;28;20052;-78
2021/04/14 01:45:47;;;;;;;11.65;7.03;;;3.20;99.90;;;;;;5054940;28;20136;-77
2021/04/14 01:48:15;;;;;;;14.95;7.35;;;3.10;99.90;;;;;;5055777;28;20480;-77
2021/04/14 01:50:42;;;;;;;14.73;8.07;;;3.20;99.90;;;;;;5058348;28;20092;-77
2021/04/14 01:53:11;;;;;;;12.52;6.57;;;3.10;99.90;;;;;;5060024;28;20144;-78
2021/04/14 01:55:39;;;;;;;11.43;7.45;;;3.10;99.90;;;;;;5058061;28;20076;-78
2021/04/14 01:58:08;;;;;;;12.65;7.32;;;3.10;99.90;;;;;;5057894;28;20141;-78
2021/04/14 02:00:40;;;;;;;12.95;7.63;;;3.10;99.90;;;;;;5059522;28;20117;-78
2021/04/14 02:03:07;;;;;;;11.55;7.38;;;3.10;99.90;;;;;;5058990;28;20460;-78
2021/04/14 02:05:34;;;;;;;13.30;7.53;;;3.10;99.90;;;;;;5059822;28;20162;-77
2021/04/14 02:08:01;;;;;;;12.63;8.07;;;3.10;99.90;;;;;;5058780;28;20108;-76
2021/04/14 02:10:30;;;;;;;15.63;8.23;;;3.00;99.90;;;;;;5058707;28;20149;-78
2021/04/14 02:12:58;;;;;;;12.13;7.47;;;3.00;99.90;;;;;;5058563;28;20397;-77
2021/04/14 02:15:28;;;;;;;13.73;7.50;;;3.00;99.90;;;;;;5058784;28;20140;-78
2021/04/14 02:17:56;;;;;;;13.68;7.68;;;3.00;99.90;;;;;;5057931;28;20061;-77
2021/04/14 02:20:22;;;;;;;13.48;8.27;;;3.00;99.90;;;;;;5057593;28;20057;-77
2021/04/14 02:22:49;;;;;;;11.88;7.47;;;3.00;99.90;;;;;;5058134;28;20108;-77
2021/04/14 02:25:16;;;;;;;12.00;7.35;;;2.90;99.90;;;;;;5058015;28;20167;-78
2021/04/14 02:27:43;;;;;;;11.05;7.70;;;2.90;99.90;;;;;;5059151;28;20056;-77
2021/04/14 02:30:13;;;;;;;11.10;7.38;;;2.90;99.90;;;;;;5059064;28;20132;-77
2021/04/14 02:32:40;;;;;;;16.02;7.82;;;2.90;99.90;;;;;;5057887;28;20090;-80
2021/04/14 02:35:07;;;;;;;11.80;6.70;;;2.90;99.90;;;;;;5057767;28;20135;-77
2021/04/14 02:37:34;;;;;;;10.68;7.40;;;2.90;99.90;;;;;;5058434;28;20502;-78
2021/04/14 02:40:00;;;;;;;12.77;7.75;;;2.90;99.90;;;;;;5059423;28;20077;-79
2021/04/14 02:42:26;;;;;;;12.68;7.55;;;2.90;99.90;;;;;;5058137;28;20092;-78
2021/04/14 02:44:53;;;;;;;11.73;7.38;;;2.80;99.90;;;;;;5059237;28;20128;-78
2021/04/14 02:47:19;;;;;;;11.93;7.10;;;2.70;99.90;;;;;;5058503;28;20498;-80
2021/04/14 02:49:46;;;;;;;12.38;7.25;;;2.70;99.90;;;;;;5058381;28;20049;-79
2021/04/14 02:52:13;;;;;;;11.95;7.20;;;2.70;99.90;;;;;;5061831;28;20108;-78
2021/04/14 02:54:39;;;;;;;11.55;7.80;;;2.70;99.90;;;;;;5061983;28;20056;-78
2021/04/14 02:57:06;;;;;;;14.52;7.38;;;2.60;99.90;;;;;;5058367;28;20103;-79
2021/04/14 02:59:32;;;;;;;16.13;8.20;;;2.60;99.90;;;;;;5057974;28;20127;-78
2021/04/14 03:01:59;;;;;;;17.05;8.48;;;2.60;99.90;;;;;;5059422;28;20080;-78
2021/04/14 03:04:26;;;;;;;14.70;7.75;;;2.60;99.90;;;;;;5059395;28;20045;-79
2021/04/14 03:06:53;;;;;;;14.88;8.25;;;2.60;99.90;;;;;;5059885;28;20474;-79
2021/04/14 03:09:20;;;;;;;14.00;8.20;;;2.50;99.90;;;;;;5061838;28;20049;-78
2021/04/14 03:11:46;;;;;;;12.25;7.45;;;2.50;99.90;;;;;;5060506;28;20136;-78
2021/04/14 03:14:13;;;;;;;12.20;7.95;;;2.50;99.90;;;;;;5061588;28;20174;-79
2021/04/14 03:16:40;;;;;;;13.32;7.82;;;2.50;99.90;;;;;;5061093;28;20056;-78
2021/04/14 03:19:06;;;;;;;13.70;7.60;;;2.40;99.90;;;;;;5059385;28;20516;-79
2021/04/14 03:21:32;;;;;;;10.50;7.70;;;2.40;99.90;;;;;;5059491;28;20045;-78
2021/04/14 03:24:00;;;;;;;16.45;8.57;;;2.40;99.90;;;;;;5062068;28;20472;-79
2021/04/14 03:26:26;;;;;;;13.35;7.85;;;2.30;99.90;;;;;;5062455;28;20064;-78
2021/04/14 03:28:52;;;;;;;12.82;8.15;;;2.30;99.90;;;;;;5062582;28;20199;-78
2021/04/14 03:31:19;;;;;;;12.73;8.38;;;2.20;99.90;;;;;;5062203;28;20127;-79
2021/04/14 03:33:46;;;;;;;15.07;8.40;;;2.20;99.90;;;;;;5059599;28;20113;-79
2021/04/14 03:36:12;;;;;;;13.98;8.93;;;2.20;99.90;;;;;;5059366;28;20077;-78
2021/04/14 03:38:48;;;;;;;14.13;7.45;;;2.10;99.90;;;;;;5060540;28;20568;-78
2021/04/14 03:41:16;;;;;;;13.68;8.20;;;2.10;99.90;;;;;;5058864;28;20059;-78
2021/04/14 03:43:43;;;;;;;12.48;7.93;;;2.00;99.90;;;;;;5059584;22;20141;-80
2021/04/14 03:46:09;;;;;;;14.13;8.60;;;2.00;99.90;;;;;;5009732;28;20503;-80
2021/04/14 03:48:35;;;;;;;11.65;8.27;;;2.00;99.90;;;;;;5001329;28;20165;-80
2021/04/14 03:51:02;;;;;;;14.13;8.48;;;2.00;99.90;;;;;;5000938;28;20530;-79
2021/04/14 03:53:30;;;;;;;15.38;8.25;;;1.90;99.90;;;;;;4991874;28;20089;-80
2021/04/14 03:55:59;;;;;;;12.80;8.30;;;1.90;99.90;;;;;;4982926;28;20106;-82
2021/04/14 03:58:28;;;;;;;13.25;7.93;;;1.90;99.90;;;;;;4984088;28;20073;-82
2021/04/14 04:00:56;;;;;;;11.73;7.70;;;1.90;99.90;;;;;;4992932;28;20049;-80
2021/04/14 04:03:24;;;;;;;13.27;8.13;;;1.90;99.90;;;;;;4994598;28;20057;-78
2021/04/14 04:05:51;;;;;;;12.00;8.00;;;1.90;99.90;;;;;;4988830;28;20046;-79
2021/04/14 04:08:18;;;;;;;12.43;8.27;;;1.80;99.90;;;;;;4983481;28;20114;-78
2021/04/14 04:10:44;;;;;;;15.45;8.20;;;1.80;99.90;;;;;;4978444;28;20051;-79
2021/04/14 04:13:12;;;;;;;13.93;8.13;;;1.80;99.90;;;;;;4978182;28;20138;-80
2021/04/14 04:15:40;;;;;;;12.38;7.75;;;1.70;99.90;;;;;;4977358;28;20062;-79
2021/04/14 04:18:07;;;;;;;15.73;8.30;;;1.60;99.90;;;;;;4976689;28;20114;-80
2021/04/14 04:20:33;;;;;;;12.18;7.40;;;1.60;99.90;;;;;;4978110;28;20137;-77
2021/04/14 04:23:01;;;;;;;16.15;8.27;;;1.70;99.90;;;;;;4976456;28;20061;-80
2021/04/14 04:25:27;;;;;;;13.75;7.82;;;1.70;99.90;;;;;;4976823;28;20051;-80
2021/04/14 04:27:54;;;;;;;12.35;7.70;;;1.80;99.90;;;;;;4976336;28;20118;-79
2021/04/14 04:30:21;;;;;;;14.02;7.88;;;1.80;99.90;;;;;;4977405;28;20089;-81
2021/04/14 04:32:48;;;;;;;11.07;7.40;;;1.90;99.90;;;;;;4978142;28;20133;-80
2021/04/14 04:35:15;;;;;;;11.95;7.55;;;1.90;99.90;;;;;;4978974;28;20066;-80
2021/04/14 04:37:41;;;;;;;16.60;7.57;;;2.00;99.90;;;;;;4977682;28;20089;-81
2021/04/14 04:40:09;;;;;;;17.35;7.15;;;2.00;99.90;;;;;;4975290;28;20082;-79
2021/04/14 04:42:36;;;;;;;11.35;7.13;;;2.00;99.90;;;;;;4975473;28;20141;-79
2021/04/14 04:45:03;;;;;;;14.27;7.50;;;2.10;99.90;;;;;;4977339;28;20061;-78
2021/04/14 04:47:30;;;;;;;15.15;7.75;;;2.00;99.90;;;;;;4977955;28;20101;-78
2021/04/14 04:49:57;;;;;;;18.88;6.97;;;2.00;99.90;;;;;;4976340;28;20082;-79
2021/04/14 04:52:23;;;;;;;14.68;7.07;;;2.10;99.90;;;;;;4976088;28;20050;-80
2021/04/14 04:54:50;;;;;;;21.33;7.25;;;2.00;99.90;;;;;;4977199;28;20089;-80
2021/04/14 04:57:16;;;;;;;12.00;7.30;;;2.00;99.90;;;;;;4977345;28;20137;-79
2021/04/14 04:59:43;;;;;;;13.90;8.25;;;2.10;99.90;;;;;;4979521;28;20150;-79
2021/04/14 05:02:09;;;;;;;10.00;6.70;;;2.10;99.90;;;;;;4980616;28;20137;-81
2021/04/14 05:04:36;;;;;;;16.92;6.88;;;2.10;99.90;;;;;;4983470;28;20054;-83
2021/04/14 05:07:03;;;;;;;15.05;6.78;;;2.10;99.90;;;;;;4982099;28;20050;-81
2021/04/14 05:09:29;;;;;;;18.17;6.72;;;2.20;99.90;;;;;;4982522;28;20050;-82
2021/04/14 05:11:56;;;;;;;16.45;7.28;;;2.20;99.90;;;;;;4982309;28;20141;-82
2021/04/14 05:14:22;;;;;;;13.32;7.38;;;2.20;99.90;;;;;;4983741;28;20194;-82
2021/04/14 05:16:49;;;;;;;16.80;6.80;;;2.20;99.90;;;;;;4988774;28;20165;-81
2021/04/14 05:19:15;;;;;;;12.82;6.68;;;2.20;99.90;;;;;;4982146;28;20077;-81
2021/04/14 05:21:42;;;;;;;13.85;6.90;;;2.10;99.90;;;;;;4986729;28;20074;-81
2021/04/14 05:24:11;;;;;;;13.57;7.10;;;2.20;99.90;;;;;;4987950;28;20059;-81
2021/04/14 05:26:38;;;;;;;11.38;6.55;;;2.30;99.90;;;;;;4989191;28;20479;-82
2021/04/14 05:29:04;;;;;;;11.85;7.20;;;2.50;99.90;;;;;;4989754;28;20065;-81
2021/04/14 05:31:31;;;;;;;22.73;7.70;;;2.60;99.90;;;;;;4990406;28;20078;-83
2021/04/14 05:33:58;;;;;;;12.88;7.40;;;2.70;99.90;;;;;;4990734;28;20074;-82
2021/04/14 05:36:25;;;;;;;10.80;6.68;;;2.70;99.90;;;;;;4989799;28;20077;-81
2021/04/14 05:38:51;;;;;;;16.70;6.82;;;2.80;99.90;;;;;;4983968;28;20137;-81
2021/04/14 05:41:20;;;;;;;27.08;7.90;;;2.90;99.90;;;;;;4990364;28;20062;-81
2021/04/14 05:43:46;;;;;;;21.65;7.28;;;3.00;99.90;;;;;;4987876;28;20530;-80
2021/04/14 05:46:14;;;;;;;20.92;7.70;;;3.10;99.90;;;;;;4986558;28;20086;-80
2021/04/14 05:48:42;;;;;;;18.60;6.95;;;3.20;99.90;;;;;;4988455;28;20050;-81
2021/04/14 05:51:11;;;;;;;15.48;7.60;;;3.20;99.90;;;;;;4984318;28;20510;-79
2021/04/14 05:53:38;;;;;;;13.95;7.07;;;3.20;99.90;;;;;;4982944;28;20089;-79
2021/04/14 05:56:06;;;;;;;15.20;7.50;;;3.30;99.90;;;;;;4984595;28;20085;-81
2021/04/14 05:58:34;;;;;;;14.55;7.78;;;3.50;99.90;;;;;;4984357;28;20086;-80
2021/04/14 06:01:07;;;;;;;24.50;7.57;;;3.60;99.90;;;;;;4983293;28;20074;-81
2021/04/14 06:03:34;;;;;;;22.75;7.63;;;3.70;99.90;;;;;;4982494;28;20062;-82
2021/04/14 06:06:04;;;;;;;20.35;8.52;;;3.80;99.90;;;;;;4977309;28;20089;-80
2021/04/14 06:08:33;;;;;;;14.70;7.20;;;4.00;99.90;;;;;;4976032;28;20101;-79
2021/04/14 06:11:02;;;;;;;20.25;6.97;;;4.40;99.90;;;;;;4976001;28;20061;-81
2021/04/14 06:13:46;;;;;;;15.63;8.55;;;4.80;99.90;;;;;;4975199;28;20076;-79
2021/04/14 06:16:15;;;;;;;11.88;7.30;;;5.00;99.90;;;;;;4975553;28;20058;-78
2021/04/14 06:18:44;;;;;;;16.90;7.20;;;5.30;99.90;;;;;;4976481;28;20046;-80
2021/04/14 06:21:15;;;;;;;21.52;7.97;;;5.80;99.90;;;;;;4978151;28;20058;-81
2021/04/14 06:23:44;;;;;;;12.38;6.75;;;6.60;99.90;;;;;;4982131;28;20047;-79
2021/04/14 06:26:42;;;;;;;14.80;7.35;;;7.00;99.90;;;;;;4975862;28;20050;-77
2021/04/14 06:29:12;;;;;;;13.32;7.53;;;7.20;99.90;;;;;;4975211;28;20054;-81
2021/04/14 06:31:43;;;;;;;15.10;7.82;;;7.30;99.90;;;;;;4977648;28;20059;-80
2021/04/14 06:34:15;;;;;;;13.43;7.57;;;7.40;99.90;;;;;;4978936;28;20046;-80
2021/04/14 06:36:44;;;;;;;11.70;8.25;;;8.00;99.90;;;;;;4981698;28;20645;-80
2021/04/14 06:39:12;;;;;;;13.68;7.45;;;8.60;99.90;;;;;;4982296;28;20154;-80
2021/04/14 06:42:02;;;;;;;14.88;8.30;;;9.20;99.90;;;;;;4981636;28;20089;-80
2021/04/14 06:44:49;;;;;;;15.80;8.30;;;9.50;99.90;;;;;;4980393;28;20133;-82
2021/04/14 06:47:22;;;;;;;14.80;7.75;;;10.30;99.90;;;;;;4980027;28;20046;-78
2021/04/14 06:49:57;;;;;;;11.05;8.00;;;10.70;99.90;;;;;;4979735;28;20177;-79
2021/04/14 06:53:06;;;;;;;13.80;7.60;;;11.40;99.90;;;;;;4980923;28;20055;-80
2021/04/14 06:55:38;;;;;;;13.52;8.15;;;11.70;99.90;;;;;;4981032;28;20530;-81
2021/04/14 06:58:17;;;;;;;10.98;7.85;;;11.80;99.90;;;;;;4981313;28;20051;-79
2021/04/14 07:00:58;;;;;;;15.77;8.20;;;11.50;99.90;;;;;;4982374;28;20411;-81
2021/04/14 07:09:46;;;;;;;;;;;;;;;;;;;;;
2021/04/14 07:12:19;;;;;;;15.35;8.00;;;11.70;99.90;;;;;;5018265;28;20137;-81
2021/04/14 07:14:46;;;;;;;;;;;12.00;99.90;;;;;;4999336;28;20086;-78
2021/04/14 07:17:33;;;;;;;15.13;8.45;;;12.10;99.90;;;;;;4998545;28;20382;-80
2021/04/14 07:20:16;;;;;;;13.55;8.50;;;12.00;99.90;;;;;;4997469;28;20093;-79
2021/04/14 07:22:59;;;;;;;16.63;8.88;;;11.80;99.90;;;;;;4995999;28;20054;-79
2021/04/14 07:25:33;;;;;;;21.13;9.82;;;11.50;99.90;;;;;;4998461;28;20471;-79
2021/04/14 07:28:09;;;;;;;27.23;10.82;;;11.60;99.90;;;;;;4996965;28;20137;-79
2021/04/14 07:30:39;;;;;;;20.23;10.93;;;11.60;99.90;;;;;;5001412;28;20062;-79
2021/04/14 07:33:18;;;;;;;20.92;10.18;;;11.40;99.90;;;;;;5004357;28;20455;-80
2021/04/14 07:36:10;;;;;;;18.90;10.00;;;11.60;99.90;;;;;;5004813;28;20053;-81
2021/04/14 07:38:43;;;;;;;15.60;8.55;;;11.70;99.90;;;;;;5005725;28;20145;-80
2021/04/14 07:41:35;;;;;;;19.90;12.45;;;11.70;99.90;;;;;;5000703;28;20553;-82
2021/04/14 07:44:12;;;;;;;13.00;7.65;;;12.10;99.90;;;;;;4999972;28;20529;-80
2021/04/14 07:46:47;;;;;;;17.17;8.35;;;12.50;99.90;;;;;;5000825;28;20053;-82
2021/04/14 07:49:17;;;;;;;17.38;8.40;;;12.40;99.90;;;;;;5003699;28;20054;-81
2021/04/14 07:51:43;;;;;;;16.83;8.48;;;12.10;99.90;;;;;;5005652;28;20089;-79
2021/04/14 07:54:14;;;;;;;13.85;8.10;;;11.60;99.90;;;;;;5005942;28;20090;-79
2021/04/14 07:56:43;;;;;;;16.38;8.73;;;11.20;99.90;;;;;;5007386;28;20061;-79
2021/04/14 07:59:13;;;;;;;15.85;8.23;;;10.80;99.90;;;;;;5010773;28;20054;-79
2021/04/14 08:01:51;;;;;;;21.77;9.70;;;10.50;99.90;;;;;;5006677;28;20077;-81
2021/04/14 08:04:25;;;;;;;12.18;8.85;;;10.30;99.90;;;;;;5003274;28;20056;-81
2021/04/14 08:06:54;;;;;;;16.73;9.50;;;10.10;99.90;;;;;;5001220;28;20046;-80
2021/04/14 08:09:22;;;;;;;13.45;9.40;;;9.60;99.90;;;;;;5000054;28;20055;-80
2021/04/14 08:11:50;;;;;;;13.05;9.48;;;9.40;99.90;;;;;;4998038;28;20096;-81
2021/04/14 08:14:32;;;;;;;14.90;9.93;;;9.00;99.90;;;;;;4997614;28;20050;-80
2021/04/14 08:17:10;;;;;;;15.98;9.82;;;8.60;99.90;;;;;;5006110;28;20046;-79
2021/04/14 08:19:38;;;;;;;16.45;9.32;;;8.50;99.90;;;;;;5010245;28;20347;-82
2021/04/14 08:22:06;;;;;;;15.25;9.88;;;8.20;99.90;;;;;;5009643;28;20101;-80
2021/04/14 08:24:36;;;;;;;15.68;9.38;;;8.20;99.90;;;;;;5011980;28;20062;-81
2021/04/14 08:27:12;;;;;;;16.38;9.20;;;8.20;99.90;;;;;;5010284;28;20054;-80
2021/04/14 08:29:39;;;;;;;18.45;9.68;;;8.20;99.90;;;;;;4999759;28;20078;-80
2021/04/14 08:32:08;;;;;;;18.55;9.90;;;8.10;99.90;;;;;;4999031;28;20050;-80
2021/04/14 08:34:39;;;;;;;13.93;8.93;;;7.80;99.90;;;;;;4998020;28;20078;-78
2021/04/14 08:37:18;;;;;;;13.10;9.02;;;7.50;99.90;;;;;;4998538;28;20491;-79
2021/04/14 08:39:51;;;;;;;14.02;9.02;;;7.30;99.90;;;;;;4998027;28;20050;-79
2021/04/14 08:42:28;;;;;;;17.30;9.52;;;7.20;99.90;;;;;;4997484;28;20086;-78
2021/04/14 08:44:57;;;;;;;13.48;10.18;;;7.10;99.90;;;;;;5016653;28;20065;-80
2021/04/14 08:47:28;;;;;;;15.90;10.68;;;7.10;99.90;;;;;;5010665;28;20081;-79
2021/04/14 08:50:03;;;;;;;18.23;11.55;;;6.90;99.90;;;;;;5005629;28;20053;-81
2021/04/14 08:52:32;;;;;;;19.75;11.95;;;6.80;99.90;;;;;;5001142;28;20073;-80
2021/04/14 08:55:00;;;;;;;16.13;11.55;;;6.80;99.90;;;;;;5000290;28;20715;-80
2021/04/14 08:57:29;;;;;;;21.15;12.57;;;6.90;99.90;;;;;;4998641;28;20084;-79
2021/04/14 08:59:58;;;;;;;22.23;11.00;;;7.20;99.90;;;;;;4980930;28;20078;-80
2021/04/14 09:02:25;;;;;;;15.65;11.57;;;7.70;99.90;;;;;;4981043;28;20051;-80
2021/04/14 09:04:55;;;;;;;18.02;12.15;;;8.10;99.90;;;;;;5008968;28;20099;-81
2021/04/14 09:07:30;;;;;;;17.02;12.02;;;8.20;99.90;;;;;;5001957;28;20058;-81
2021/04/14 09:10:10;;;;;;;;;;;;;;;;;;;;;
2021/04/14 09:15:19;;;;;;;16.88;10.50;;;9.50;99.90;;;;;;5045466;28;20068;-80
2021/04/14 09:18:00;;;;;;;13.10;9.73;;;9.70;99.90;;;;;;5045326;28;20053;-81
2021/04/14 09:20:31;;;;;;;14.25;10.10;;;9.50;99.90;;;;;;5041100;28;20104;-80
2021/04/14 09:23:05;;;;;;;16.67;10.10;;;9.20;99.90;;;;;;5044765;28;20045;-81
2021/04/14 09:25:40;;;;;;;13.20;9.40;;;9.10;99.90;;;;;;5053349;28;20516;-80
2021/04/14 09:28:09;;;;;;;17.90;11.48;;;8.90;99.90;;;;;;5051899;28;20102;-82
2021/04/14 09:30:48;;;;;;;20.10;14.48;;;8.70;99.90;;;;;;5049954;28;20054;-82
2021/04/14 09:33:17;;;;;;;18.92;14.57;;;8.50;99.90;;;;;;5038900;28;20076;-81
2021/04/14 09:36:01;;;;;;;21.58;15.15;;;8.50;99.90;;;;;;5048464;28;20037;-82
2021/04/14 09:38:32;;;;;;;;;;;8.60;99.90;;;;;;5046337;28;20109;-83
2021/04/14 09:41:29;;;;;;;18.02;12.68;;;8.40;99.90;;;;;;5042179;28;19921;-82
2021/04/14 09:43:58;;;;;;;16.80;12.73;;;8.40;99.90;;;;;;5059632;22;20046;-77
2021/04/14 09:46:30;;;;;;;19.40;13.68;;;8.40;99.90;;;;;;5014095;28;20410;-77
2021/04/14 09:49:08;;;;;;;18.30;12.50;;;8.40;99.90;;;;;;5019730;28;20096;-76
2021/04/14 09:51:36;;;;;;;21.20;16.95;;;8.50;99.90;;;;;;5015492;28;20132;-77
2021/04/14 09:54:11;;;;;;;16.52;10.23;;;8.60;99.90;;;;;;5021489;28;20084;-78
2021/04/14 09:56:45;;;;;;;18.08;16.25;;;8.60;99.90;;;;;;5021001;28;20129;-78
2021/04/14 09:59:17;;;;;;;11.13;6.78;;;8.60;99.90;;;;;;5020527;28;20104;-78
2021/04/14 10:01:46;;;;;;;11.77;8.20;;;8.80;99.90;;;;;;5023342;28;20058;-79
2021/04/14 10:04:17;;;;;;;16.38;8.07;;;8.80;99.90;;;;;;5022293;28;20077;-78
2021/04/14 10:06:44;;;;;;;13.98;8.57;;;8.90;99.90;;;;;;5021880;28;20050;-78
2021/04/14 10:09:20;;;;;;;13.98;8.40;;;9.00;99.90;;;;;;5003751;28;20050;-79
2021/04/14 10:11:50;;;;;;;12.23;8.65;;;9.10;99.90;;;;;;5029445;28;20834;-77
2021/04/14 10:14:20;;;;;;;11.13;7.55;;;9.10;99.90;;;;;;5029944;28;20101;-78
2021/04/14 10:16:51;;;;;;;12.68;8.60;;;9.40;99.90;;;;;;5024900;28;20073;-77
2021/04/14 10:19:28;;;;;;;11.27;8.45;;;9.60;99.90;;;;;;5025694;28;20133;-78
2021/04/14 10:21:55;;;;;;;14.93;9.93;;;9.70;99.90;;;;;;5021412;28;20119;-78
2021/04/14 10:24:22;;;;;;;19.90;12.65;;;9.80;99.90;;;;;;5014575;28;20050;-78
2021/04/14 10:26:51;;;;;;;19.42;12.93;;;9.70;99.90;;;;;;5015469;28;20585;-78
2021/04/14 10:29:22;;;;;;;16.30;12.05;;;9.80;99.90;;;;;;5015347;28;20144;-78
2021/04/14 10:31:49;;;;;;;21.23;13.18;;;10.00;99.90;;;;;;5015103;28;20485;-78
2021/04/14 10:34:25;;;;;;;25.42;15.05;;;10.00;99.90;;;;;;5015061;28;20137;-78
2021/04/14 10:36:52;;;;;;;20.70;13.07;;;9.60;99.90;;;;;;5015351;28;20085;-78
2021/04/14 10:39:25;;;;;;;20.15;13.38;;;9.60;99.90;;;;;;5018296;28;20081;-78
2021/04/14 10:41:53;;;;;;;;;;;9.70;99.90;;;;;;5018242;28;20133;-78
2021/04/14 10:44:22;;;;;;;17.15;12.13;;;9.80;99.90;;;;;;5017306;28;19928;-78
2021/04/14 10:46:49;;;;;;;18.85;13.30;;;9.80;99.90;;;;;;5017083;28;20046;-78
2021/04/14 10:49:28;;;;;;;20.25;13.10;;;9.50;99.90;;;;;;5017789;28;20085;-78
2021/04/14 10:52:00;;;;;;;20.90;13.65;;;9.60;99.90;;;;;;5019328;28;20145;-77
2021/04/14 10:54:29;;;;;;;17.83;11.40;;;9.70;99.90;;;;;;5020022;28;20049;-79
2021/04/14 10:57:04;;;;;;;17.92;12.82;;;9.70;99.90;;;;;;5016820;28;20289;-78
2021/04/14 10:59:32;;;;;;;15.15;11.77;;;9.90;99.90;;;;;;5015718;28;20105;-78
2021/04/14 11:01:59;;;;;;;14.30;12.35;;;9.90;99.90;;;;;;5017801;28;20046;-79
2021/04/14 11:04:33;;;;;;;16.63;12.20;;;9.90;99.90;;;;;;5020772;28;20140;-77
2021/04/14 11:07:03;;;;;;;16.65;11.95;;;9.90;99.90;;;;;;5017828;28;20077;-77
2021/04/14 11:09:32;;;;;;;14.10;10.73;;;9.90;99.90;;;;;;5014507;28;20054;-78
2021/04/14 11:12:05;;;;;;;15.65;11.55;;;10.10;99.90;;;;;;5015000;28;20388;-77
2021/04/14 11:14:32;;;;;;;17.27;11.40;;;10.00;99.90;;;;;;5017699;28;20111;-78
2021/04/14 11:17:00;;;;;;;15.82;11.52;;;9.70;99.90;;;;;;5018368;28;20498;-78
2021/04/14 11:19:27;;;;;;;16.55;11.98;;;9.70;99.90;;;;;;5015718;28;20133;-78
2021/04/14 11:22:02;;;;;;;14.20;10.93;;;9.80;99.90;;;;;;5014126;28;20058;-78
2021/04/14 11:24:28;;;;;;;14.23;11.50;;;9.80;99.90;;;;;;5014700;28;20046;-78
2021/04/14 11:26:57;;;;;;;15.88;11.65;;;9.70;99.70;;;;;;5017460;28;20046;-77
2021/04/14 11:29:27;;;;;;;14.23;11.55;;;9.80;99.90;;;;;;5014175;28;20065;-76
2021/04/14 11:31:55;;;;;;;16.55;11.68;;;10.10;99.40;;;;;;5014029;28;20096;-78
2021/04/14 11:34:24;;;;;;;16.95;11.45;;;10.30;98.30;;;;;;5013987;28;20050;-77
2021/04/14 11:36:58;;;;;;;16.75;12.68;;;10.50;99.90;;;;;;5013852;28;20081;-77
2021/04/14 11:39:26;;;;;;;16.65;11.43;;;10.70;99.80;;;;;;5012462;28;20049;-78
2021/04/14 11:42:11;;;;;;;15.80;11.93;;;10.60;99.90;;;;;;5013879;28;20128;-78
2021/04/14 11:44:43;;;;;;;15.88;11.93;;;10.70;99.90;;;;;;5012889;28;20049;-78
2021/04/14 11:47:25;;;;;;;17.85;11.82;;;10.60;99.90;;;;;;5013822;28;20049;-77
2021/04/14 11:49:51;;;;;;;15.90;12.43;;;10.40;99.90;;;;;;5025624;28;20132;-77
2021/04/14 11:52:26;;;;;;;17.88;12.18;;;10.10;99.90;;;;;;5035163;28;20136;-79
2021/04/14 11:54:57;;;;;;;15.80;12.18;;;10.20;99.90;;;;;;5030637;28;20046;-78
2021/04/14 11:57:26;;;;;;;15.85;11.93;;;10.30;99.90;;;;;;5016388;28;20536;-78
2021/04/14 12:00:07;;;;;;;15.57;11.77;;;10.50;99.90;;;;;;5016136;28;20084;-78
2021/04/14 12:02:38;;;;;;;18.65;11.40;;;10.70;99.90;;;;;;5015526;28;20114;-78
2021/04/14 12:05:07;;;;;;;16.48;12.70;;;10.60;99.90;;;;;;5017950;28;20053;-78
2021/04/14 12:07:34;;;;;;;17.48;12.68;;;10.40;99.90;;;;;;5015087;28;20136;-78
2021/04/14 12:10:00;;;;;;;16.20;12.27;;;10.30;99.90;;;;;;5013745;28;20081;-78
2021/04/14 12:12:27;;;;;;;16.15;12.88;;;10.10;99.90;;;;;;5014312;28;20134;-79
2021/04/14 12:14:53;;;;;;;14.98;12.40;;;10.10;99.90;;;;;;5017628;28;20084;-79
2021/04/14 12:17:21;;;;;;;17.20;12.55;;;9.90;99.90;;;;;;5018844;28;20077;-80
2021/04/14 12:19:47;;;;;;;16.15;12.75;;;9.70;99.90;;;;;;5017266;28;20137;-79
2021/04/14 12:22:14;;;;;;;16.23;12.05;;;9.80;99.90;;;;;;5032217;28;20081;-79
2021/04/14 12:24:43;;;;;;;14.80;12.23;;;10.00;99.90;;;;;;5038076;28;20148;-78
2021/04/14 12:27:10;;;;;;;16.45;12.32;;;10.10;99.90;;;;;;5037443;28;20132;-78
2021/04/14 12:29:36;;;;;;;15.98;12.88;;;10.20;99.90;;;;;;5039992;28;20073;-78
2021/04/14 12:32:03;;;;;;;16.52;12.45;;;10.10;99.90;;;;;;5044054;28;20050;-78
2021/04/14 12:34:31;;;;;;;17.60;11.80;;;10.00;99.90;;;;;;5044406;28;20068;-78
2021/04/14 12:36:57;;;;;;;15.80;12.27;;;10.20;99.90;;;;;;5043973;28;20135;-77
2021/04/14 12:39:24;;;;;;;14.63;12.00;;;10.20;99.90;;;;;;5039977;28;20045;-78
2021/04/14 12:41:51;;;;;;;14.43;11.70;;;10.40;99.90;;;;;;5031146;28;20050;-79
2021/04/14 12:44:19;;;;;;;17.10;12.25;;;10.40;99.90;;;;;;5022326;28;20073;-79
2021/04/14 12:46:48;;;;;;;15.68;12.20;;;10.70;99.90;;;;;;5017787;28;20045;-78
2021/04/14 12:49:17;;;;;;;15.82;12.98;;;10.70;99.90;;;;;;5017256;28;20064;-79
2021/04/14 12:51:48;;;;;;;21.13;13.23;;;10.50;99.90;;;;;;5018199;28;20104;-78
2021/04/14 12:54:24;;;;;;;14.32;11.80;;;10.40;99.90;;;;;;5018118;28;20537;-78
2021/04/14 12:56:52;;;;;;;16.20;11.73;;;10.60;99.90;;;;;;5015988;28;20064;-78
2021/04/14 12:59:21;;;;;;;13.40;11.30;;;10.90;99.90;;;;;;5012854;28;20716;-79
2021/04/14 13:01:50;;;;;;;16.20;12.13;;;11.00;99.90;;;;;;5013962;28;20133;-78
2021/04/14 13:04:22;;;;;;;14.10;11.77;;;11.10;99.90;;;;;;5012767;28;20136;-76
2021/04/14 13:06:55;;;;;;;14.35;11.35;;;11.20;99.90;;;;;;5013210;28;20089;-77